Time;durP1;ratioP1;P1;durP2;ratioP2;P2;SDS_P1;SDS_P2;PMS_P1;PMS_P2;Temp;Humidity;BMP_temperature;BMP_pressure;BME280_temperature;BME280_humidity;BME280_pressure;Samples;Min_cycle;Max_cycle;Signal;HPM_P1;HPM_P2
2022/12/05 00:01:21;;;;;;;64.28;24.10;;;;;;;;;;5052563;28;20116;-68
2022/12/05 00:03:48;;;;;;;75.72;26.13;;;;;;;;;;5053247;28;20055;-69
2022/12/05 00:06:14;;;;;;;63.78;24.50;;;;;;;;;;5052605;28;20048;-68
2022/12/05 00:08:40;;;;;;;79.43;27.23;;;;;;;;;;5051901;28;20566;-68
2022/12/05 00:11:13;;;;;;;73.38;26.13;;;;;;;;;;5052032;28;20041;-68
2022/12/05 00:13:40;;;;;;;69.22;25.55;;;;;;;;;;5051264;28;20059;-68
2022/12/05 00:16:07;;;;;;;75.90;26.05;;;;;;;;;;5052114;28;20056;-68
2022/12/05 00:18:33;;;;;;;60.83;23.50;;;;;;;;;;5070699;28;20049;-68
2022/12/05 00:20:59;;;;;;;68.28;24.33;;;;;;;;;;5052070;28;20083;-70
2022/12/05 00:23:26;;;;;;;76.05;25.63;;;;;;;;;;5052076;28;20128;-70
2022/12/05 00:25:52;;;;;;;68.53;25.63;;;;;;;;;;5035580;28;20052;-69
2022/12/05 00:28:18;;;;;;;62.50;24.23;;;;;;;;;;5051805;28;20045;-68
2022/12/05 00:30:44;;;;;;;62.60;24.02;;;;;;;;;;5052036;28;20082;-69
2022/12/05 00:33:10;;;;;;;70.32;24.35;;;;;;;;;;5053149;28;20068;-69
2022/12/05 00:35:36;;;;;;;62.70;24.02;;;;;;;;;;5051847;28;20041;-68
2022/12/05 00:38:02;;;;;;;60.42;23.50;;;;;;;;;;5051760;28;20032;-68
2022/12/05 00:40:28;;;;;;;60.15;23.05;;;;;;;;;;5051354;28;20064;-69
2022/12/05 00:42:54;;;;;;;56.38;21.77;;;;;;;;;;5049069;28;20043;-69
2022/12/05 00:45:20;;;;;;;59.00;22.73;;;;;;;;;;5053133;28;20048;-69
2022/12/05 00:47:46;;;;;;;56.75;22.85;;;;;;;;;;5051534;28;20083;-69
2022/12/05 00:50:12;;;;;;;51.92;21.50;;;;;;;;;;5051462;28;20045;-68
2022/12/05 00:52:38;;;;;;;53.65;22.15;;;;;;;;;;5084281;28;21313;-68
2022/12/05 00:55:05;;;;;;;57.97;23.80;;;;;;;;;;5052266;28;20041;-68
2022/12/05 00:57:31;;;;;;;58.13;21.85;;;;;;;;;;5076403;28;20443;-68
2022/12/05 00:59:57;;;;;;;66.10;25.08;;;;;;;;;;5052679;28;20037;-68
2022/12/05 01:02:23;;;;;;;60.95;23.90;;;;;;;;;;5051339;28;20053;-69
2022/12/05 01:04:49;;;;;;;58.38;23.55;;;;;;;;;;5051319;28;20045;-69
2022/12/05 01:07:15;;;;;;;65.78;25.15;;;;;;;;;;5051291;28;20481;-68
2022/12/05 01:09:42;;;;;;;62.05;23.92;;;;;;;;;;5051017;28;20036;-68
2022/12/05 01:12:08;;;;;;;62.45;23.40;;;;;;;;;;5052304;28;20076;-65
2022/12/05 01:14:34;;;;;;;65.10;23.17;;;;;;;;;;5052419;28;20045;-68
2022/12/05 01:17:00;;;;;;;60.33;22.95;;;;;;;;;;5034981;28;20040;-68
2022/12/05 01:19:28;;;;;;;63.05;24.45;;;;;;;;;;5051151;28;20055;-68
2022/12/05 01:21:54;;;;;;;57.30;24.27;;;;;;;;;;5051378;28;20083;-68
2022/12/05 01:24:21;;;;;;;63.30;24.38;;;;;;;;;;5050783;28;20024;-68
2022/12/05 01:26:47;;;;;;;64.50;24.52;;;;;;;;;;5050913;28;20086;-68
2022/12/05 01:29:14;;;;;;;59.95;23.77;;;;;;;;;;5052081;28;20036;-68
2022/12/05 01:31:41;;;;;;;61.90;24.40;;;;;;;;;;5051039;28;20086;-68
2022/12/05 01:34:09;;;;;;;58.28;22.50;;;;;;;;;;5052112;28;20037;-68
2022/12/05 01:36:38;;;;;;;65.93;24.45;;;;;;;;;;5050461;28;20072;-68
2022/12/05 01:39:04;;;;;;;55.80;22.17;;;;;;;;;;5051134;28;20041;-68
2022/12/05 01:41:32;;;;;;;66.13;23.88;;;;;;;;;;5051724;28;20167;-68
2022/12/05 01:44:18;;;;;;;59.10;23.05;;;;;;;;;;5045800;28;20170;-68
2022/12/05 01:46:46;;;;;;;60.35;22.90;;;;;;;;;;5051289;28;20052;-65
2022/12/05 01:49:30;;;;;;;72.55;25.67;;;;;;;;;;5049071;28;20485;-65
2022/12/05 01:52:08;;;;;;;65.85;24.52;;;;;;;;;;5051838;28;20052;-65
2022/12/05 01:54:35;;;;;;;52.78;23.35;;;;;;;;;;5050145;28;20041;-65
2022/12/05 01:57:12;;;;;;;56.10;22.13;;;;;;;;;;5050330;28;20040;-65
2022/12/05 01:59:41;;;;;;;65.80;22.83;;;;;;;;;;5050386;28;20103;-65
2022/12/05 02:02:07;;;;;;;52.38;19.85;;;;;;;;;;5051541;28;20036;-66
2022/12/05 02:04:38;;;;;;;56.42;21.38;;;;;;;;;;5050680;28;20037;-66
2022/12/05 02:07:04;;;;;;;58.17;21.40;;;;;;;;;;5050032;28;20041;-68
2022/12/05 02:09:30;;;;;;;52.65;20.55;;;;;;;;;;5049226;28;20033;-68
2022/12/05 02:11:57;;;;;;;44.00;18.45;;;;;;;;;;5052075;28;20124;-68
2022/12/05 02:14:33;;;;;;;49.55;19.70;;;;;;;;;;5050734;28;20370;-68
2022/12/05 02:17:08;;;;;;;49.40;18.60;;;;;;;;;;5050662;28;20073;-65
2022/12/05 02:19:34;;;;;;;42.92;17.67;;;;;;;;;;5050661;28;20076;-65
2022/12/05 02:22:22;;;;;;;39.40;16.90;;;;;;;;;;5073164;28;20056;-68
2022/12/05 02:24:57;;;;;;;45.15;17.83;;;;;;;;;;5050304;28;20040;-68
2022/12/05 02:27:33;;;;;;;41.47;15.85;;;;;;;;;;5050398;28;20045;-65
2022/12/05 02:30:08;;;;;;;42.67;15.98;;;;;;;;;;5051680;28;20033;-65
2022/12/05 02:32:50;;;;;;;36.05;15.13;;;;;;;;;;5050059;28;20339;-66
2022/12/05 02:35:25;;;;;;;36.38;15.13;;;;;;;;;;5051104;28;20073;-66
2022/12/05 02:37:54;;;;;;;35.22;15.00;;;;;;;;;;5052652;28;20068;-65
2022/12/05 02:40:30;;;;;;;29.98;13.73;;;;;;;;;;5053648;28;20037;-65
2022/12/05 02:43:02;;;;;;;34.53;13.80;;;;;;;;;;5055167;28;21371;-65
2022/12/05 02:45:29;;;;;;;28.07;12.90;;;;;;;;;;5054821;28;20051;-65
2022/12/05 02:47:56;;;;;;;30.23;13.23;;;;;;;;;;5054861;28;20033;-65
2022/12/05 02:50:24;;;;;;;31.55;13.85;;;;;;;;;;5053513;28;20040;-66
2022/12/05 02:52:52;;;;;;;33.30;14.10;;;;;;;;;;5053372;28;20040;-65
2022/12/05 02:55:19;;;;;;;24.83;12.15;;;;;;;;;;5053346;28;20394;-65
2022/12/05 02:57:48;;;;;;;30.77;12.77;;;;;;;;;;5054844;28;20428;-65
2022/12/05 03:00:14;;;;;;;25.83;12.00;;;;;;;;;;5053668;28;20566;-65
2022/12/05 03:02:40;;;;;;;30.33;12.38;;;;;;;;;;5036676;28;20037;-65
2022/12/05 03:05:17;;;;;;;25.90;11.93;;;;;;;;;;5053349;28;20524;-65
2022/12/05 03:07:45;;;;;;;25.48;12.25;;;;;;;;;;5053263;28;20037;-65
2022/12/05 03:10:12;;;;;;;28.40;10.98;;;;;;;;;;5053126;28;20500;-65
2022/12/05 03:12:41;;;;;;;34.97;11.90;;;;;;;;;;5053080;28;20053;-66
2022/12/05 03:15:18;;;;;;;30.83;11.25;;;;;;;;;;5052890;28;20041;-65
2022/12/05 03:17:47;;;;;;;25.77;10.50;;;;;;;;;;5046958;28;20041;-65
2022/12/05 03:20:15;;;;;;;25.38;11.07;;;;;;;;;;5052237;28;20029;-65
2022/12/05 03:22:43;;;;;;;30.23;11.65;;;;;;;;;;5054394;28;20086;-65
2022/12/05 03:25:09;;;;;;;31.83;11.55;;;;;;;;;;5052986;28;20032;-65
2022/12/05 03:27:49;;;;;;;26.38;11.45;;;;;;;;;;5054186;28;20163;-65
2022/12/05 03:30:19;;;;;;;24.17;10.32;;;;;;;;;;5054145;28;20458;-66
2022/12/05 03:32:53;;;;;;;27.80;10.23;;;;;;;;;;5050495;28;20513;-65
2022/12/05 03:35:29;;;;;;;25.40;11.00;;;;;;;;;;5052876;28;20398;-65
2022/12/05 03:38:13;;;;;;;37.22;11.05;;;;;;;;;;5053657;28;20117;-71
2022/12/05 03:40:40;;;;;;;41.40;11.20;;;;;;;;;;5051957;28;20035;-65
2022/12/05 03:43:07;;;;;;;20.42;9.85;;;;;;;;;;5053424;28;20083;-65
2022/12/05 03:45:43;;;;;;;22.25;10.55;;;;;;;;;;5051582;28;20049;-65
2022/12/05 03:48:18;;;;;;;26.33;11.15;;;;;;;;;;5035148;28;20440;-65
2022/12/05 03:50:46;;;;;;;31.88;10.73;;;;;;;;;;5066995;28;20437;-65
2022/12/05 03:53:20;;;;;;;34.97;11.25;;;;;;;;;;5053328;28;20037;-65
2022/12/05 03:55:49;;;;;;;35.42;11.57;;;;;;;;;;5053516;28;20497;-65
2022/12/05 03:58:23;;;;;;;26.73;11.30;;;;;;;;;;5052313;28;20043;-65
2022/12/05 04:00:50;;;;;;;28.65;11.45;;;;;;;;;;5054035;28;20424;-65
2022/12/05 04:03:20;;;;;;;33.22;11.18;;;;;;;;;;5034867;28;20033;-65
2022/12/05 04:05:52;;;;;;;30.95;10.73;;;;;;;;;;5052801;28;20068;-67
2022/12/05 04:08:27;;;;;;;25.67;11.48;;;;;;;;;;5070919;28;20041;-65
2022/12/05 04:10:54;;;;;;;25.50;11.65;;;;;;;;;;5052479;28;20048;-65
2022/12/05 04:13:32;;;;;;;33.80;12.45;;;;;;;;;;5052013;28;20053;-65
2022/12/05 04:18:52;;;;;;;28.83;11.90;;;;;;;;;;5050001;28;20044;-65
2022/12/05 04:21:38;;;;;;;35.78;11.80;;;;;;;;;;5052860;28;20033;-65
2022/12/05 04:27:06;;;;;;;26.42;11.25;;;;;;;;;;5051944;28;20052;-66
2022/12/05 04:29:34;;;;;;;33.13;11.82;;;;;;;;;;5051725;28;20045;-66
2022/12/05 04:32:03;;;;;;;28.00;11.45;;;;;;;;;;5051484;28;20183;-66
2022/12/05 04:34:31;;;;;;;37.60;12.15;;;;;;;;;;5051968;28;20124;-66
2022/12/05 04:37:03;;;;;;;36.58;12.68;;;;;;;;;;5051436;28;20118;-66
2022/12/05 04:39:29;;;;;;;30.17;11.48;;;;;;;;;;5050211;28;20041;-66
2022/12/05 04:42:01;;;;;;;36.38;12.18;;;;;;;;;;5053033;28;20059;-66
2022/12/05 04:44:31;;;;;;;34.92;12.20;;;;;;;;;;5051423;28;20389;-66
2022/12/05 04:47:06;;;;;;;40.10;11.32;;;;;;;;;;5053175;28;20473;-66
2022/12/05 04:49:33;;;;;;;35.20;13.20;;;;;;;;;;5035193;28;20102;-66
2022/12/05 04:52:01;;;;;;;33.58;12.45;;;;;;;;;;5035243;28;20059;-66
2022/12/05 04:54:31;;;;;;;30.95;12.13;;;;;;;;;;5052685;28;20083;-66
2022/12/05 04:57:05;;;;;;;27.23;12.60;;;;;;;;;;5051550;28;20128;-66
2022/12/05 04:59:31;;;;;;;32.65;12.63;;;;;;;;;;5050680;28;20044;-66
2022/12/05 05:02:00;;;;;;;39.25;12.77;;;;;;;;;;5034970;28;20029;-66
2022/12/05 05:04:29;;;;;;;31.33;13.15;;;;;;;;;;5051296;28;20462;-66
2022/12/05 05:06:55;;;;;;;31.95;13.15;;;;;;;;;;5083798;28;20045;-66
2022/12/05 05:09:21;;;;;;;27.15;12.98;;;;;;;;;;5050905;28;20070;-66
2022/12/05 05:11:47;;;;;;;36.15;12.18;;;;;;;;;;5051058;28;20077;-66
2022/12/05 05:14:14;;;;;;;32.55;12.95;;;;;;;;;;5050862;28;20088;-66
2022/12/05 05:16:41;;;;;;;40.45;13.70;;;;;;;;;;5051014;28;20551;-66
2022/12/05 05:19:07;;;;;;;41.45;13.45;;;;;;;;;;5052250;28;20041;-66
2022/12/05 05:21:37;;;;;;;34.70;13.05;;;;;;;;;;5052404;28;20401;-66
2022/12/05 05:24:03;;;;;;;34.78;13.52;;;;;;;;;;5050870;28;20385;-66
2022/12/05 05:26:30;;;;;;;32.58;13.10;;;;;;;;;;5050812;28;20397;-66
2022/12/05 05:28:57;;;;;;;31.73;12.25;;;;;;;;;;5051815;28;20397;-65
2022/12/05 05:31:23;;;;;;;33.63;12.25;;;;;;;;;;5067766;28;20048;-66
2022/12/05 05:33:51;;;;;;;37.13;14.13;;;;;;;;;;5032701;28;20067;-66
2022/12/05 05:36:18;;;;;;;35.88;14.15;;;;;;;;;;5050953;28;20083;-66
2022/12/05 05:38:47;;;;;;;39.88;13.50;;;;;;;;;;5051482;28;20047;-66
2022/12/05 05:41:15;;;;;;;36.85;14.05;;;;;;;;;;5052953;28;20041;-66
2022/12/05 05:43:41;;;;;;;33.88;12.32;;;;;;;;;;5051475;28;20194;-67
2022/12/05 05:46:07;;;;;;;32.85;13.35;;;;;;;;;;5053085;28;20044;-66
2022/12/05 05:48:33;;;;;;;47.58;14.05;;;;;;;;;;5051317;28;20120;-66
2022/12/05 05:51:01;;;;;;;33.80;12.50;;;;;;;;;;5050214;28;20041;-67
2022/12/05 05:53:27;;;;;;;31.20;12.63;;;;;;;;;;5050129;28;20098;-66
2022/12/05 05:55:53;;;;;;;40.78;12.82;;;;;;;;;;5050867;28;20048;-66
2022/12/05 05:58:19;;;;;;;37.17;13.35;;;;;;;;;;5050573;28;20086;-66
2022/12/05 06:00:45;;;;;;;34.83;15.05;;;;;;;;;;5051809;28;20033;-66
2022/12/05 06:03:11;;;;;;;33.85;12.88;;;;;;;;;;5051275;28;20075;-66
2022/12/05 06:05:37;;;;;;;33.17;12.25;;;;;;;;;;5050749;28;20036;-66
2022/12/05 06:08:04;;;;;;;30.05;11.73;;;;;;;;;;5051910;28;20476;-67
2022/12/05 06:10:30;;;;;;;43.03;12.90;;;;;;;;;;5052202;28;20029;-66
2022/12/05 06:12:57;;;;;;;34.60;11.82;;;;;;;;;;5055396;28;20111;-66
2022/12/05 06:15:23;;;;;;;31.33;12.20;;;;;;;;;;5054345;28;20091;-66
2022/12/05 06:17:49;;;;;;;36.63;12.98;;;;;;;;;;5054724;28;20116;-66
2022/12/05 06:20:15;;;;;;;30.27;11.60;;;;;;;;;;5054271;28;20037;-66
2022/12/05 06:22:41;;;;;;;33.45;11.70;;;;;;;;;;5054016;28;20039;-66
2022/12/05 06:25:08;;;;;;;27.38;11.07;;;;;;;;;;5055467;28;20045;-66
2022/12/05 06:27:34;;;;;;;27.27;10.38;;;;;;;;;;5053923;28;20520;-66
2022/12/05 06:30:00;;;;;;;32.30;12.07;;;;;;;;;;5085104;28;20041;-66
2022/12/05 06:32:27;;;;;;;28.13;10.75;;;;;;;;;;5053601;28;20052;-66
2022/12/05 06:34:53;;;;;;;25.60;11.20;;;;;;;;;;5054912;28;20048;-66
2022/12/05 06:37:19;;;;;;;27.05;10.82;;;;;;;;;;5079531;28;20100;-66
2022/12/05 06:39:45;;;;;;;30.67;11.35;;;;;;;;;;5051046;28;20128;-66
2022/12/05 06:42:11;;;;;;;35.72;11.50;;;;;;;;;;5035911;28;20103;-66
2022/12/05 06:44:37;;;;;;;25.20;11.80;;;;;;;;;;5055061;28;20044;-66
2022/12/05 06:47:03;;;;;;;27.95;11.95;;;;;;;;;;5055952;28;20048;-66
2022/12/05 06:49:32;;;;;;;35.80;10.95;;;;;;;;;;5056064;28;20037;-66
2022/12/05 06:52:01;;;;;;;27.55;11.07;;;;;;;;;;5054529;28;20497;-66
2022/12/05 06:54:27;;;;;;;27.83;11.52;;;;;;;;;;5055987;28;20512;-66
2022/12/05 06:56:53;;;;;;;31.77;11.38;;;;;;;;;;5055786;28;20041;-66
2022/12/05 06:59:19;;;;;;;33.97;11.55;;;;;;;;;;5088188;28;20052;-66
2022/12/05 07:01:45;;;;;;;39.03;10.63;;;;;;;;;;5055498;28;20040;-66
2022/12/05 07:04:14;;;;;;;34.67;11.32;;;;;;;;;;5053423;28;20063;-66
2022/12/05 07:06:42;;;;;;;27.85;10.50;;;;;;;;;;5054510;28;20053;-66
2022/12/05 07:09:09;;;;;;;29.42;10.57;;;;;;;;;;5053285;28;20072;-66
2022/12/05 07:11:35;;;;;;;30.08;9.55;;;;;;;;;;5054447;28;20096;-66
2022/12/05 07:14:02;;;;;;;28.27;9.70;;;;;;;;;;5052727;28;20060;-66
2022/12/05 07:16:28;;;;;;;34.90;10.10;;;;;;;;;;5053324;28;20064;-66
2022/12/05 07:18:55;;;;;;;24.05;9.52;;;;;;;;;;5054594;28;20052;-65
2022/12/05 07:21:21;;;;;;;25.42;9.05;;;;;;;;;;5053339;28;20095;-66
2022/12/05 07:23:49;;;;;;;32.92;9.57;;;;;;;;;;5053578;28;20043;-66
2022/12/05 07:26:16;;;;;;;34.38;9.50;;;;;;;;;;5053187;28;20033;-66
2022/12/05 07:28:42;;;;;;;33.42;9.50;;;;;;;;;;5052791;28;20354;-66
2022/12/05 07:31:09;;;;;;;41.33;10.82;;;;;;;;;;5052926;28;20140;-66
2022/12/05 07:33:35;;;;;;;24.48;9.82;;;;;;;;;;5053953;28;20116;-66
2022/12/05 07:36:03;;;;;;;27.65;8.95;;;;;;;;;;5052565;28;20044;-66
2022/12/05 07:38:29;;;;;;;23.45;9.70;;;;;;;;;;5033229;28;20044;-66
2022/12/05 07:40:55;;;;;;;26.88;8.73;;;;;;;;;;5051157;28;20037;-66
2022/12/05 07:43:21;;;;;;;26.58;8.40;;;;;;;;;;5054022;28;20044;-66
2022/12/05 07:45:47;;;;;;;34.22;8.40;;;;;;;;;;5052597;28;20041;-66
2022/12/05 07:48:13;;;;;;;34.92;9.50;;;;;;;;;;5052537;28;20048;-66
2022/12/05 07:50:39;;;;;;;25.88;8.68;;;;;;;;;;5052664;28;20063;-66
2022/12/05 07:53:05;;;;;;;30.85;9.57;;;;;;;;;;5053579;28;20037;-65
2022/12/05 07:55:31;;;;;;;26.58;8.27;;;;;;;;;;5052312;28;20091;-66
2022/12/05 07:57:57;;;;;;;35.72;10.48;;;;;;;;;;5035603;28;20546;-66
2022/12/05 08:00:23;;;;;;;28.98;9.30;;;;;;;;;;5053593;28;20393;-66
2022/12/05 08:02:49;;;;;;;31.58;8.68;;;;;;;;;;5052192;28;20048;-66
2022/12/05 08:05:16;;;;;;;25.50;9.40;;;;;;;;;;5078332;28;20041;-66
2022/12/05 08:07:42;;;;;;;25.40;8.80;;;;;;;;;;5051537;28;20043;-66
2022/12/05 08:10:08;;;;;;;24.10;8.02;;;;;;;;;;5051804;28;20049;-66
2022/12/05 08:12:34;;;;;;;28.38;9.18;;;;;;;;;;5051217;28;20053;-66
2022/12/05 08:15:00;;;;;;;31.30;9.52;;;;;;;;;;5052916;28;20449;-69
2022/12/05 08:17:29;;;;;;;25.15;8.38;;;;;;;;;;5035507;28;20041;-70
2022/12/05 08:19:55;;;;;;;32.13;9.18;;;;;;;;;;5051962;28;20088;-70
2022/12/05 08:22:22;;;;;;;28.33;8.43;;;;;;;;;;5034887;28;20037;-70
2022/12/05 08:24:49;;;;;;;34.28;8.98;;;;;;;;;;5051412;28;20170;-70
2022/12/05 08:27:15;;;;;;;18.83;7.53;;;;;;;;;;5052634;28;20036;-70
2022/12/05 08:29:42;;;;;;;30.70;9.02;;;;;;;;;;5052488;28;20041;-70
2022/12/05 08:32:08;;;;;;;26.30;8.13;;;;;;;;;;5052373;28;20033;-70
2022/12/05 08:34:34;;;;;;;27.98;9.27;;;;;;;;;;5050169;28;20113;-70
2022/12/05 08:37:00;;;;;;;25.80;8.75;;;;;;;;;;5052237;28;20481;-70
2022/12/05 08:39:26;;;;;;;31.60;9.40;;;;;;;;;;5053360;28;20119;-70
2022/12/05 08:41:52;;;;;;;33.38;8.60;;;;;;;;;;5051636;28;20048;-71
2022/12/05 08:44:18;;;;;;;27.98;8.70;;;;;;;;;;5051973;28;20039;-70
2022/12/05 08:46:46;;;;;;;22.45;8.20;;;;;;;;;;5050310;28;20524;-70
2022/12/05 08:49:12;;;;;;;34.17;9.32;;;;;;;;;;5051456;28;20036;-70
2022/12/05 08:51:39;;;;;;;31.40;9.13;;;;;;;;;;5078308;28;20082;-70
2022/12/05 08:54:05;;;;;;;24.48;9.07;;;;;;;;;;5051299;28;20036;-68
2022/12/05 08:56:31;;;;;;;29.60;8.95;;;;;;;;;;5034814;28;20041;-70
2022/12/05 08:58:58;;;;;;;27.92;10.55;;;;;;;;;;5053540;28;20396;-69
2022/12/05 09:01:29;;;;;;;27.92;9.38;;;;;;;;;;5052819;28;20041;-69
2022/12/05 09:03:55;;;;;;;31.52;10.65;;;;;;;;;;5073032;28;20037;-70
2022/12/05 09:06:22;;;;;;;23.80;7.88;;;;;;;;;;5051833;28;20037;-69
2022/12/05 09:08:49;;;;;;;25.95;8.77;;;;;;;;;;5052547;28;20033;-69
2022/12/05 09:11:17;;;;;;;28.00;8.45;;;;;;;;;;5050685;28;20447;-69
2022/12/05 09:13:43;;;;;;;33.92;9.15;;;;;;;;;;5050996;28;20041;-69
2022/12/05 09:16:20;;;;;;;27.17;8.27;;;;;;;;;;5050880;28;20045;-70
2022/12/05 09:18:47;;;;;;;29.23;9.10;;;;;;;;;;5079102;28;20037;-68
2022/12/05 09:21:21;;;;;;;30.92;8.77;;;;;;;;;;5051875;28;20393;-68
2022/12/05 09:23:47;;;;;;;24.70;8.90;;;;;;;;;;5050514;28;20358;-68
2022/12/05 09:26:14;;;;;;;31.13;9.20;;;;;;;;;;5050351;28;20036;-68
2022/12/05 09:28:41;;;;;;;25.67;8.45;;;;;;;;;;5050789;28;20488;-66
2022/12/05 09:31:08;;;;;;;32.63;9.90;;;;;;;;;;5050433;28;20469;-66
2022/12/05 09:33:35;;;;;;;32.58;11.00;;;;;;;;;;5051570;28;20036;-66
2022/12/05 09:36:27;;;;;;;26.25;9.48;;;;;;;;;;5051367;28;20037;-66
2022/12/05 09:38:54;;;;;;;29.10;10.13;;;;;;;;;;5049609;28;20041;-66
2022/12/05 09:42:03;;;;;;;32.55;10.95;;;;;;;;;;5051281;28;20389;-66
2022/12/05 09:44:14;;;;;;;30.17;10.43;;;;;;;;;;5072949;28;20041;-66
2022/12/05 09:46:54;;;;;;;32.47;10.30;;;;;;;;;;5050878;28;20043;-66
2022/12/05 09:49:21;;;;;;;28.38;10.15;;;;;;;;;;5051686;28;20064;-66
2022/12/05 09:51:48;;;;;;;36.53;11.07;;;;;;;;;;5050466;28;20047;-66
2022/12/05 09:54:15;;;;;;;27.20;9.68;;;;;;;;;;5048206;28;20048;-66
2022/12/05 09:56:43;;;;;;;30.15;11.23;;;;;;;;;;5050110;28;20037;-66
2022/12/05 09:59:12;;;;;;;35.75;10.52;;;;;;;;;;5049917;28;20495;-66
2022/12/05 10:01:40;;;;;;;36.28;11.93;;;;;;;;;;5049761;28;20033;-66
2022/12/05 10:04:18;;;;;;;35.80;11.77;;;;;;;;;;5050008;28;20112;-66
2022/12/05 10:06:50;;;;;;;29.48;10.75;;;;;;;;;;5049926;28;20087;-66
2022/12/05 10:09:35;;;;;;;32.38;10.52;;;6.40;99.90;;;;;;5077314;28;20036;-66
2022/12/05 10:12:20;;;;;;;26.30;10.73;;;;;;;;;;5049653;28;20053;-66
2022/12/05 10:14:52;;;;;;;29.60;10.40;;;;;;;;;;5050553;28;20049;-66
2022/12/05 10:17:18;;;;;;;;;;;;;;;;;;5050155;28;20505;-66
2022/12/05 10:19:46;;;;;;;26.30;9.98;;;;;;;;;;5051120;28;20046;-68
2022/12/05 10:22:14;;;;;;;29.52;10.38;;;;;;;;;;5049509;28;20045;-70
2022/12/05 10:24:46;;;;;;;21.48;10.65;;;;;;;;;;5049874;28;20029;-69
2022/12/05 10:27:19;;;;;;;30.73;9.27;;;;;;;;;;5051461;28;20102;-69
2022/12/05 10:29:50;;;;;;;28.65;9.73;;;;;;;;;;5049193;28;20048;-69
2022/12/05 10:32:28;;;;;;;33.70;10.57;;;;;;;;;;5051223;28;20048;-73
2022/12/05 10:34:55;;;;;;;26.83;9.65;;;;;;;;;;5049676;28;20473;-69
2022/12/05 10:37:22;;;;;;;35.65;10.95;;;;;;;;;;5049750;28;20044;-69
2022/12/05 10:39:50;;;;;;;25.58;9.13;;;;;;;;;;5047697;28;20037;-69
2022/12/05 10:42:18;;;;;;;28.20;10.30;;;;;;;;;;5052234;28;20439;-69
2022/12/05 10:44:44;;;;;;;30.35;10.40;;;;;;;;;;5053518;28;20052;-69
2022/12/05 10:47:11;;;;;;;33.08;10.48;;;;;;;;;;5051170;28;20040;-69
2022/12/05 10:49:37;;;;;;;38.08;11.32;;;;;;;;;;5052492;28;20033;-69
2022/12/05 10:52:04;;;;;;;35.85;9.25;;;;;;;;;;5052326;28;20033;-69
2022/12/05 10:54:32;;;;;;;35.72;11.23;;;;;;;;;;5052232;28;20543;-69
2022/12/05 10:56:58;;;;;;;42.10;11.43;;;;;;;;;;5051629;28;20084;-69
2022/12/05 10:59:25;;;;;;;31.80;11.50;;;;;;;;;;5054857;28;20135;-69
2022/12/05 11:01:53;;;;;;;30.15;10.05;;;;;;;;;;5054460;28;20151;-69
2022/12/05 11:04:23;;;;;;;30.55;9.75;;;;;;;;;;5054350;28;20072;-69
2022/12/05 11:07:12;;;;;;;33.58;9.30;;;;;;;;;;5054365;28;20045;-70
2022/12/05 11:09:39;;;;;;;25.70;8.85;;;;;;;;;;5054620;28;20033;-69
2022/12/05 11:12:21;;;;;;;33.85;9.68;;;;;;;;;;5052875;28;20585;-69
2022/12/05 11:14:58;;;;;;;29.63;10.02;;;;;;;;;;5053100;28;20057;-69
2022/12/05 11:17:26;;;;;;;27.90;8.73;;;;;;;;;;5051898;28;20564;-70
2022/12/05 11:19:52;;;;;;;34.53;9.70;;;;;;;;;;5054000;28;20036;-70
2022/12/05 11:22:18;;;;;;;33.53;10.18;;;;;;;;;;5052619;28;20548;-70
2022/12/05 11:24:44;;;;;;;28.70;9.52;;;;;;;;;;5053109;28;20037;-70
2022/12/05 11:27:17;;;;;;;34.17;10.52;;;;;;;;;;5054061;28;20044;-70
2022/12/05 11:30:03;;;;;;;39.33;10.02;;;;;;;;;;5053103;28;20099;-70
2022/12/05 11:32:31;;;;;;;25.98;9.55;;;;;;;;;;5052717;28;20583;-70
2022/12/05 11:35:01;;;;;;;29.67;9.23;;;;;;;;;;5054238;28;20037;-70
2022/12/05 11:37:31;;;;;;;30.80;9.38;;;;;;;;;;5052785;28;20041;-70
2022/12/05 11:39:57;;;;;;;36.08;9.88;;;;;;;;;;5052936;28;20040;-70
2022/12/05 11:42:41;;;;;;;26.05;8.77;;;;;;;;;;5053424;28;20045;-70
2022/12/05 11:45:28;;;;;;;28.65;9.25;;;;;;;;;;5055104;28;20039;-70
2022/12/05 11:47:54;;;;;;;25.88;8.55;;;;;;;;;;5052961;28;20037;-70
2022/12/05 11:50:23;;;;;;;27.70;8.52;;;;;;;;;;5052500;28;20084;-70
2022/12/05 11:52:52;;;;;;;32.75;8.63;;;;;;;;;;5052618;28;20116;-70
2022/12/05 11:55:26;;;;;;;32.08;8.80;;;;;;;;;;5052350;28;20049;-69
2022/12/05 11:58:07;;;;;;;29.85;8.63;;;;;;;;;;5068664;28;20049;-69
2022/12/05 12:00:42;;;;;;;31.60;8.85;;;;;;;;;;5052402;28;20048;-69
2022/12/05 12:03:27;;;;;;;27.92;9.70;;;;;;;;;;5053673;28;20040;-69
2022/12/05 12:06:15;;;;;;;30.77;9.45;;;;;;;;;;5033798;28;20090;-70
2022/12/05 12:09:00;;;;;;;28.98;9.35;;;;;;;;;;5052214;28;20398;-70
2022/12/05 12:11:34;;;;;;;27.63;10.27;;;;;;;;;;5052145;28;20045;-70
2022/12/05 12:14:19;;;;;;;41.38;10.35;;;;;;;;;;5053317;28;20144;-70
2022/12/05 12:16:54;;;;;;;27.40;8.82;;;;;;;;;;5052120;28;20049;-70
2022/12/05 12:19:35;;;;;;;29.70;8.85;;;;;;;;;;5053246;28;20059;-70
2022/12/05 12:22:10;;;;;;;26.25;8.82;;;;;;;;;;5049042;28;20033;-70
2022/12/05 12:24:51;;;;;;;23.08;8.70;;;;;;;;;;5050931;28;20086;-70
2022/12/05 12:27:35;;;;;;;29.75;9.43;;;;;;;;;;5052420;28;20106;-70
2022/12/05 12:30:21;;;;;;;23.80;8.57;;;;;;;;;;5051740;28;20366;-70
2022/12/05 12:33:11;;;;;;;23.25;8.77;;;;;;;;;;5052533;28;20143;-70
2022/12/05 12:35:37;;;;;;;27.92;9.13;;;;;;;;;;5034386;28;20448;-70
2022/12/05 12:38:10;;;;;;;27.17;7.68;;;;;;;;;;5052648;28;20060;-72
2022/12/05 12:40:42;;;;;;;33.50;9.98;;;;;;;;;;5050037;28;20041;-70
2022/12/05 12:43:14;;;;;;;36.95;10.23;;;;;;;;;;5051890;28;20045;-70
2022/12/05 12:45:44;;;;;;;22.02;8.43;;;;;;;;;;5051528;28;20045;-70
2022/12/05 12:48:16;;;;;;;36.45;10.60;;;;;;;;;;5052896;28;20094;-70
2022/12/05 12:50:44;;;;;;;34.00;9.57;;;;;;;;;;5051373;28;20037;-70
2022/12/05 12:53:13;;;;;;;27.77;7.85;;;;;;;;;;5051375;28;20067;-70
2022/12/05 12:55:46;;;;;;;22.23;7.85;;;;;;;;;;5047732;28;20049;-70
2022/12/05 12:58:17;;;;;;;;;;;6.30;99.90;;;;;;5053150;28;20417;-70
2022/12/05 13:00:43;;;;;;;35.97;11.57;;;;;;;;;;5051323;28;19916;-70
2022/12/05 13:03:12;;;;;;;23.52;8.07;;;;;;;;;;5052184;28;20094;-70
2022/12/05 13:05:42;;;;;;;23.98;8.05;;;;;;;;;;5048889;28;20045;-70
2022/12/05 13:08:15;;;;;;;25.60;7.43;;;;;;;;;;5051443;28;20067;-70
2022/12/05 13:10:46;;;;;;;30.42;8.13;;;;;;;;;;5048582;28;20484;-70
2022/12/05 13:13:14;;;;;;;19.73;7.40;;;;;;;;;;5051282;28;20132;-70
2022/12/05 13:15:48;;;;;;;23.65;6.38;;;;;;;;;;5083795;28;20048;-69
2022/12/05 13:18:17;;;;;;;30.75;8.35;;;;;;;;;;5050955;28;20033;-69
2022/12/05 13:20:44;;;;;;;19.98;7.20;;;;;;;;;;5049994;28;20504;-69
2022/12/05 13:23:14;;;;;;;21.05;7.25;;;;;;;;;;5050637;28;20048;-69
2022/12/05 13:25:41;;;;;;;18.30;7.63;;;;;;;;;;5050909;28;20501;-69
2022/12/05 13:28:23;;;;;;;19.73;6.50;;;;;;;;;;5050746;28;21625;-69
2022/12/05 13:31:06;;;;;;;18.33;6.10;;;;;;;;;;5034413;28;20052;-69
2022/12/05 13:33:34;;;;;;;16.80;5.97;;;;;;;;;;5050692;28;20630;-69
2022/12/05 13:44:32;;;;;;;15.02;6.10;;;;;;;;;;5051218;28;20068;-69
2022/12/05 13:46:59;;;;;;;20.02;5.97;;;;;;;;;;5050329;28;20055;-69
2022/12/05 13:49:35;;;;;;;22.20;6.22;;;;;;;;;;5050774;28;20048;-69
2022/12/05 13:52:07;;;;;;;17.00;6.07;;;;;;;;;;5058583;28;20136;-69
2022/12/05 13:54:34;;;;;;;21.60;6.32;;;;;;;;;;5049701;28;20033;-69
2022/12/05 13:57:02;;;;;;;14.45;5.35;;;;;;;;;;5050347;28;20049;-69
2022/12/05 13:59:47;;;;;;;14.75;5.50;;;;;;;;;;5050674;28;20037;-69
2022/12/05 14:02:31;;;;;;;20.90;6.35;;;;;;;;;;5050749;28;20456;-69
2022/12/05 14:04:58;;;;;;;24.55;6.28;;;;;;;;;;5050300;28;20029;-69
2022/12/05 14:07:37;;;;;;;19.75;6.13;;;;;;;;;;5051878;28;20099;-69
2022/12/05 14:10:04;;;;;;;21.42;5.43;;;;;;;;;;5047854;28;20087;-69
2022/12/05 14:12:30;;;;;;;17.05;5.20;;;;;;;;;;5051477;28;20037;-69
2022/12/05 14:14:56;;;;;;;21.38;5.15;;;;;;;;;;5051120;28;20052;-69
2022/12/05 14:17:23;;;;;;;13.82;4.90;;;;;;;;;;5051804;28;20053;-69
2022/12/05 14:20:09;;;;;;;12.88;4.85;;;;;;;;;;5050276;28;20047;-69
2022/12/05 14:22:50;;;;;;;18.17;5.70;;;;;;;;;;5051521;28;20069;-70
2022/12/05 14:25:26;;;;;;;13.70;4.97;;;;;;;;;;5067635;28;20529;-70
2022/12/05 14:28:02;;;;;;;16.15;5.93;;;;;;;;;;5033629;28;20496;-70
2022/12/05 14:30:42;;;;;;;15.77;6.20;;;;;;;;;;5050166;28;20060;-69
2022/12/05 14:33:16;;;;;;;19.35;5.28;;;;;;;;;;5053771;28;20106;-69
2022/12/05 14:35:47;;;;;;;19.90;6.35;;;;;;;;;;5055999;28;20070;-69
2022/12/05 14:38:19;;;;;;;16.75;5.78;;;;;;;;;;5053534;28;20132;-70
2022/12/05 14:40:46;;;;;;;19.80;6.50;;;;;;;;;;5053728;28;20102;-70
2022/12/05 14:43:19;;;;;;;22.15;5.80;;;;;;;;;;5055870;28;20037;-70
2022/12/05 14:45:56;;;;;;;20.25;5.85;;;;;;;;;;5053529;28;20123;-70
2022/12/05 14:48:27;;;;;;;15.85;5.80;;;;;;;;;;5054955;28;20029;-70
2022/12/05 14:50:54;;;;;;;14.38;5.32;;;;;;;;;;5055191;28;20044;-70